Molengracht — PCJG — position and weather

sailwx.info

Track history (hours):
 
Tides and Currents Weather Stations Pressure Air Temp Water Temp Dewpoint Dewpoint Depression Visibility Wind Speed Wind Dir Waves Ship Positions

Molengracht

Last reported at 2014-Sep-06 03:33 UTC. Time now 2014-Sep-20 15:56 UTC.
Position N 01°12' E 104°11'.
Warning: this ship's position is 14 days out of date.

Length 143 m; draft 6 m.

Type: Cargo ship. MMSI: 246770000.

Date/timePositionNaut miles runAvg speedWind from/ knotsBaromVisibWave heightAir tempDewpointWater temp
2014-Sep-06 03:33N 01°12' E 104°11'9 8.5
2014-Sep-06 02:33N 01°14' E 104°02'9 9.0
2014-Sep-06 01:33N 01°09' E 103°55'2 0.1
2014-Sep-05 02:32N 01°08' E 103°54'1 0.4
2014-Sep-05 01:10N 01°08' E 103°54'2 3.9
2014-Sep-05 00:32N 01°10' E 103°55'1 0.5
2014-Sep-04 23:33N 01°11' E 103°56'5 5.0
2014-Sep-04 22:33N 01°15' E 103°53'0 0.4
2014-Sep-04 21:33N 01°15' E 103°53'0 0.0
2014-Sep-04 20:33N 01°15' E 103°53'0 0.0
2014-Sep-04 19:27N 01°15' E 103°53'0 0.0
2014-Sep-04 18:33N 01°15' E 103°53'0 0.1
2014-Sep-04 17:33N 01°15' E 103°53'0 0.0
2014-Sep-04 16:33N 01°15' E 103°53'0 0.1
2014-Sep-04 15:33N 01°15' E 103°53'0 0.0
2014-Sep-04 14:33N 01°15' E 103°53'0 0.1
2014-Sep-04 13:24N 01°15' E 103°53'0 0.0
2014-Sep-04 12:33N 01°15' E 103°53'0 0.0
2014-Sep-04 11:27N 01°15' E 103°53'0 0.1
2014-Sep-04 10:27N 01°15' E 103°53'0 0.1
2014-Sep-04 09:33N 01°15' E 103°53'0 0.0
2014-Sep-04 08:33N 01°15' E 103°53'0 0.0
2014-Sep-04 07:33N 01°15' E 103°53'0 0.0
2014-Sep-04 06:33N 01°15' E 103°53'0 0.0
2014-Sep-04 05:33N 01°15' E 103°53'0 0.0
2014-Sep-04 04:33N 01°15' E 103°53'0 0.0
2014-Sep-04 03:33N 01°15' E 103°53'0 0.0
2014-Sep-04 02:33N 01°15' E 103°53'0 0.0
2014-Sep-04 01:33N 01°15' E 103°53'0 0.0
2014-Sep-04 00:29N 01°15' E 103°53'4 4.5
2014-Sep-03 23:33N 01°15' E 103°57'9 9.2
2014-Sep-03 22:32N 01°16' E 104°06'  
Track history (hours):
 
Tides and Currents Weather Stations Pressure Air Temp Water Temp Dewpoint Dewpoint Depression Visibility Wind Speed Wind Dir Waves Ship Positions

Molengracht

Last reported at 2014-Sep-06 03:33 UTC. Time now 2014-Sep-20 15:56 UTC.
Position N 01°12' E 104°11'.
Warning: this ship's position is 14 days out of date.

Length 143 m; draft 6 m.

Type: Cargo ship. MMSI: 246770000.

Date/timePositionNaut miles runAvg speedWind from/ knotsBaromVisibWave heightAir tempDewpointWater temp
2014-Sep-06 03:33N 01°12' E 104°11'9 8.5
2014-Sep-06 02:33N 01°14' E 104°02'9 9.0
2014-Sep-06 01:33N 01°09' E 103°55'2 0.1
2014-Sep-05 02:32N 01°08' E 103°54'1 0.4
2014-Sep-05 01:10N 01°08' E 103°54'2 3.9
2014-Sep-05 00:32N 01°10' E 103°55'1 0.5
2014-Sep-04 23:33N 01°11' E 103°56'5 5.0
2014-Sep-04 22:33N 01°15' E 103°53'0 0.4
2014-Sep-04 21:33N 01°15' E 103°53'0 0.0
2014-Sep-04 20:33N 01°15' E 103°53'0 0.0
2014-Sep-04 19:27N 01°15' E 103°53'0 0.0
2014-Sep-04 18:33N 01°15' E 103°53'0 0.1
2014-Sep-04 17:33N 01°15' E 103°53'0 0.0
2014-Sep-04 16:33N 01°15' E 103°53'0 0.1
2014-Sep-04 15:33N 01°15' E 103°53'0 0.0
2014-Sep-04 14:33N 01°15' E 103°53'0 0.1
2014-Sep-04 13:24N 01°15' E 103°53'0 0.0
2014-Sep-04 12:33N 01°15' E 103°53'0 0.0
2014-Sep-04 11:27N 01°15' E 103°53'0 0.1
2014-Sep-04 10:27N 01°15' E 103°53'0 0.1
2014-Sep-04 09:33N 01°15' E 103°53'0 0.0
2014-Sep-04 08:33N 01°15' E 103°53'0 0.0
2014-Sep-04 07:33N 01°15' E 103°53'0 0.0
2014-Sep-04 06:33N 01°15' E 103°53'0 0.0
2014-Sep-04 05:33N 01°15' E 103°53'0 0.0
2014-Sep-04 04:33N 01°15' E 103°53'0 0.0
2014-Sep-04 03:33N 01°15' E 103°53'0 0.0
2014-Sep-04 02:33N 01°15' E 103°53'0 0.0
2014-Sep-04 01:33N 01°15' E 103°53'0 0.0
2014-Sep-04 00:29N 01°15' E 103°53'4 4.5
2014-Sep-03 23:33N 01°15' E 103°57'9 9.2
2014-Sep-03 22:32N 01°16' E 104°06'  

Dump ship's entire track history